createdAt,value
2022-12-15T00:02:06.413Z,4.07
2022-12-15T00:07:27.798Z,12.18
2022-12-15T00:12:48.724Z,9.75
2022-12-15T00:18:09.970Z,11.50
2022-12-15T00:23:32.545Z,11.00
2022-12-15T00:28:54.032Z,8.30
2022-12-15T00:34:15.405Z,12.20
2022-12-15T00:39:18.160Z,11.57
2022-12-15T00:44:21.490Z,8.90
2022-12-15T00:49:44.261Z,13.32
2022-12-15T00:55:05.323Z,9.55
2022-12-15T01:00:27.747Z,4.57
2022-12-15T01:05:48.874Z,7.03
2022-12-15T01:11:10.140Z,8.95
2022-12-15T01:16:31.931Z,3.05
2022-12-15T01:21:34.686Z,11.00
2022-12-15T01:26:37.530Z,6.85
2022-12-15T01:31:40.370Z,9.23
2022-12-15T01:36:43.382Z,4.70
2022-12-15T01:41:46.078Z,12.35
2022-12-15T01:46:50.496Z,10.25
2022-12-15T01:51:57.090Z,5.28
2022-12-15T01:57:07.653Z,8.88
2022-12-15T02:02:11.275Z,7.15
2022-12-15T02:07:15.500Z,9.85
2022-12-15T02:12:55.341Z,4.00
2022-12-15T02:18:27.274Z,12.23
2022-12-15T02:23:48.298Z,9.88
2022-12-15T02:29:07.988Z,13.73
2022-12-15T02:34:37.082Z,7.45
2022-12-15T02:39:39.801Z,9.80
2022-12-15T02:44:57.886Z,10.88
2022-12-15T02:50:31.270Z,6.75
2022-12-15T02:55:39.920Z,6.53
2022-12-15T03:00:46.956Z,4.25
2022-12-15T03:05:57.603Z,6.40
2022-12-15T03:11:00.305Z,9.80
2022-12-15T03:16:03.326Z,4.85
2022-12-15T03:21:06.247Z,10.80
2022-12-15T03:26:08.970Z,7.55
2022-12-15T03:31:11.885Z,6.85
2022-12-15T03:36:14.602Z,5.83
2022-12-15T03:41:18.644Z,8.60
2022-12-15T03:46:21.368Z,6.78
2022-12-15T03:51:24.089Z,9.13
2022-12-15T03:56:26.818Z,12.73
2022-12-15T04:01:31.067Z,7.30
2022-12-15T04:06:33.825Z,9.82
2022-12-15T04:11:36.549Z,10.90
2022-12-15T04:16:39.508Z,9.15
2022-12-15T04:21:42.227Z,5.15
2022-12-15T04:27:03.313Z,7.80
2022-12-15T04:32:24.755Z,9.90
2022-12-15T04:37:45.941Z,8.45
2022-12-15T04:43:07.565Z,7.10
2022-12-15T04:48:29.549Z,9.07
2022-12-15T04:53:50.963Z,10.75
2022-12-15T05:04:33.218Z,10.68
2022-12-15T05:09:55.083Z,7.47
2022-12-15T05:15:17.344Z,6.47
2022-12-15T05:20:38.640Z,11.05
2022-12-15T05:26:00.432Z,9.05
2022-12-15T05:31:21.867Z,11.30
2022-12-15T05:41:27.328Z,13.60
2022-12-15T05:46:30.069Z,6.50
2022-12-15T05:51:33.095Z,8.85
2022-12-15T05:56:36.597Z,12.07
2022-12-15T06:01:39.669Z,10.00
2022-12-15T06:06:42.462Z,12.13
2022-12-15T06:11:45.225Z,9.50
2022-12-15T06:16:50.485Z,10.95
2022-12-15T06:21:54.301Z,12.45
2022-12-15T06:26:57.095Z,4.93
2022-12-15T06:31:59.844Z,11.20
2022-12-15T06:37:02.489Z,10.43
2022-12-15T06:42:05.273Z,14.32
2022-12-15T06:47:07.992Z,14.82
2022-12-15T06:52:10.898Z,10.07
2022-12-15T06:57:13.622Z,10.25
2022-12-15T07:02:23.830Z,9.77
2022-12-15T07:07:31.303Z,15.98
2022-12-15T07:12:34.167Z,7.72
2022-12-15T07:17:37.302Z,6.30
2022-12-15T07:22:40.304Z,7.10
2022-12-15T07:27:43.013Z,13.07
2022-12-15T07:32:50.127Z,15.05
2022-12-15T07:37:53.146Z,13.95
2022-12-15T07:42:55.894Z,14.80
2022-12-15T07:47:58.805Z,14.55
2022-12-15T07:53:01.499Z,11.70
2022-12-15T07:58:04.322Z,9.45
2022-12-15T08:03:07.097Z,13.15
2022-12-15T08:08:15.237Z,11.60
2022-12-15T08:13:38.128Z,11.55
2022-12-15T08:18:41.033Z,7.43
2022-12-15T08:23:43.720Z,16.27
2022-12-15T08:28:46.861Z,14.27
2022-12-15T08:33:50.189Z,10.05
2022-12-15T08:38:53.340Z,8.82
2022-12-15T08:43:57.130Z,14.52
2022-12-15T08:49:00.661Z,17.77
2022-12-15T08:54:03.397Z,17.35
2022-12-15T08:59:06.256Z,14.77
2022-12-15T09:04:09.274Z,15.40
2022-12-15T09:09:13.690Z,13.60
2022-12-15T09:14:19.611Z,9.43
2022-12-15T09:19:25.616Z,14.80
2022-12-15T09:24:34.812Z,14.20
2022-12-15T09:29:37.932Z,10.52
2022-12-15T09:34:41.203Z,15.00
2022-12-15T09:39:43.931Z,7.35
2022-12-15T09:44:46.929Z,14.90
2022-12-15T09:49:58.998Z,15.20
2022-12-15T10:00:22.313Z,13.98
2022-12-15T10:06:14.236Z,11.88
2022-12-15T10:11:11.841Z,13.43
2022-12-15T10:16:29.664Z,10.95
2022-12-15T10:21:32.906Z,16.08
2022-12-15T10:26:35.860Z,18.13
2022-12-15T10:31:50.289Z,18.13
2022-12-15T10:36:53.524Z,9.55
2022-12-15T10:42:14.553Z,20.05
2022-12-15T10:47:26.602Z,17.13
2022-12-15T10:52:35.779Z,12.88
2022-12-15T10:57:38.475Z,8.27
2022-12-15T11:02:42.578Z,12.57
2022-12-15T11:07:50.600Z,12.52
2022-12-15T11:12:59.924Z,21.33
2022-12-15T11:18:29.708Z,18.63
2022-12-15T11:23:59.672Z,15.80
2022-12-15T11:29:27.064Z,17.80
2022-12-15T11:34:35.718Z,14.80
2022-12-15T11:39:48.631Z,11.77
2022-12-15T11:45:14.637Z,17.38
2022-12-15T11:50:59.815Z,17.30
2022-12-15T11:56:21.965Z,19.52
2022-12-15T12:01:53.955Z,15.98
2022-12-15T12:07:11.738Z,18.10
2022-12-15T12:12:23.960Z,21.90
2022-12-15T12:17:48.321Z,19.10
2022-12-15T12:23:14.163Z,15.50
2022-12-15T12:28:22.533Z,17.75
2022-12-15T12:33:46.508Z,19.42
2022-12-15T12:38:56.449Z,11.35
2022-12-15T12:44:08.608Z,19.08
2022-12-15T12:49:26.820Z,19.60
2022-12-15T12:54:38.619Z,17.85
2022-12-15T13:05:33.947Z,18.73
2022-12-15T13:10:39.083Z,16.00
2022-12-15T13:21:42.047Z,14.52
2022-12-15T13:26:45.503Z,18.20
2022-12-15T13:31:52.974Z,15.65
2022-12-15T13:36:57.587Z,20.90
2022-12-15T13:47:29.148Z,16.95
2022-12-15T13:53:08.677Z,13.77
2022-12-15T13:58:18.698Z,15.05
2022-12-15T14:03:21.623Z,13.07
2022-12-15T14:08:26.163Z,12.82
2022-12-15T14:13:35.149Z,18.88
2022-12-15T14:18:42.049Z,20.17
2022-12-15T14:24:11.453Z,19.40
2022-12-15T14:29:10.658Z,15.20
2022-12-15T14:34:21.907Z,12.43
2022-12-15T14:39:31.376Z,14.13
2022-12-15T14:44:49.727Z,14.40
2022-12-15T14:49:53.915Z,18.45
2022-12-15T14:55:01.019Z,21.42
2022-12-15T15:00:23.920Z,11.73
2022-12-15T15:03:07.287Z,19.03
2022-12-15T15:03:09.040Z,20.55
2022-12-15T15:05:28.106Z,20.00
2022-12-15T15:10:30.983Z,20.60
2022-12-15T15:15:33.753Z,19.75
2022-12-15T15:20:38.180Z,21.83
2022-12-15T15:26:07.055Z,17.33
2022-12-15T15:31:25.210Z,16.30
2022-12-15T15:36:36.548Z,17.40
2022-12-15T15:41:39.324Z,14.95
2022-12-15T15:46:51.127Z,13.75
2022-12-15T15:51:56.286Z,16.38
2022-12-15T15:56:59.055Z,14.18
2022-12-15T16:02:02.726Z,17.50
2022-12-15T16:07:05.561Z,15.43
2022-12-15T16:12:14.219Z,17.25
2022-12-15T16:17:17.906Z,13.82
2022-12-15T16:22:22.225Z,15.43
2022-12-15T16:27:25.814Z,15.30
2022-12-15T16:32:28.577Z,15.95
2022-12-15T16:37:36.202Z,20.15
2022-12-15T16:42:42.283Z,17.90
2022-12-15T16:47:45.878Z,14.88
2022-12-15T16:52:50.233Z,16.90
2022-12-15T16:57:55.159Z,15.90
2022-12-15T17:02:58.943Z,17.88
2022-12-15T17:08:04.724Z,16.88
2022-12-15T17:13:39.153Z,18.60
2022-12-15T17:18:46.590Z,18.30
2022-12-15T17:23:53.714Z,19.48
2022-12-15T17:29:02.228Z,17.52
2022-12-15T17:34:33.561Z,9.25
2022-12-15T17:39:36.591Z,14.13
2022-12-15T17:44:40.342Z,15.50
2022-12-15T17:49:43.476Z,17.75
2022-12-15T17:54:46.204Z,13.45
2022-12-15T17:59:49.001Z,19.70
2022-12-15T18:04:51.998Z,16.15
2022-12-15T18:09:54.747Z,17.80
2022-12-15T18:14:57.489Z,12.90
2022-12-15T18:20:00.456Z,10.07
2022-12-15T18:25:03.383Z,11.65
2022-12-15T18:30:06.750Z,14.85
2022-12-15T18:35:19.323Z,9.15
2022-12-15T18:40:27.478Z,18.42
2022-12-15T18:45:30.183Z,16.55
2022-12-15T18:50:32.887Z,14.57
2022-12-15T18:55:35.521Z,9.10
2022-12-15T19:00:39.766Z,18.15
2022-12-15T19:05:42.910Z,19.13
2022-12-15T19:10:56.238Z,18.92
2022-12-15T19:15:59.977Z,17.92
2022-12-15T19:21:29.024Z,12.77
2022-12-15T19:26:31.870Z,18.50
2022-12-15T19:31:34.665Z,16.67
2022-12-15T19:36:37.458Z,18.08
2022-12-15T19:41:40.094Z,14.00
2022-12-15T19:46:43.742Z,11.10
2022-12-15T19:51:46.537Z,9.32
2022-12-15T19:56:49.290Z,13.75
2022-12-15T20:01:52.433Z,10.38
2022-12-15T20:06:55.287Z,19.25
2022-12-15T20:11:58.166Z,18.17
2022-12-15T20:17:01.065Z,16.35
2022-12-15T20:22:05.018Z,13.80
2022-12-15T20:27:13.675Z,19.42
2022-12-15T20:32:21.107Z,25.52
2022-12-15T20:37:28.825Z,17.75
2022-12-15T20:42:31.542Z,16.42
2022-12-15T20:47:34.645Z,18.48
2022-12-15T20:52:37.295Z,11.27
2022-12-15T20:57:40.063Z,18.20
2022-12-15T21:02:43.696Z,18.38
2022-12-15T21:07:47.088Z,16.77
2022-12-15T21:12:50.904Z,17.63
2022-12-15T21:18:19.743Z,16.38
2022-12-15T21:23:21.917Z,16.90
2022-12-15T21:28:25.551Z,17.08
2022-12-15T21:33:28.125Z,18.98
2022-12-15T21:38:40.987Z,12.20
2022-12-15T21:43:44.198Z,19.50
2022-12-15T21:49:05.759Z,18.90
2022-12-15T21:54:18.676Z,15.43
2022-12-15T21:59:23.663Z,14.82
2022-12-15T22:04:30.918Z,12.43
2022-12-15T22:09:33.724Z,12.90
2022-12-15T22:14:36.511Z,10.48
2022-12-15T22:19:39.189Z,17.65
2022-12-15T22:24:42.043Z,21.08
2022-12-15T22:29:44.748Z,17.73
2022-12-15T22:34:47.392Z,18.02
2022-12-15T22:39:50.048Z,12.88
2022-12-15T22:44:54.544Z,15.60
2022-12-15T22:49:57.470Z,12.25
2022-12-15T22:55:00.385Z,10.65
2022-12-15T23:00:09.421Z,12.55
2022-12-15T23:05:14.706Z,11.30
2022-12-15T23:10:37.740Z,15.27
2022-12-15T23:16:00.750Z,12.82
2022-12-15T23:21:03.652Z,12.95
2022-12-15T23:26:06.527Z,13.48
2022-12-15T23:31:09.430Z,11.38
2022-12-15T23:36:13.003Z,12.00
2022-12-15T23:41:17.204Z,13.18
2022-12-15T23:46:20.118Z,9.32
2022-12-15T23:51:22.892Z,9.30
2022-12-15T23:56:27.575Z,11.70
